Time;durP1;ratioP1;P1;durP2;ratioP2;P2;SDS_P1;SDS_P2;PMS_P1;PMS_P2;Temp;Humidity;BMP_temperature;BMP_pressure;BME280_temperature;BME280_humidity;BME280_pressure;Samples;Min_cycle;Max_cycle;Signal;HPM_P1;HPM_P2
2022/01/21 00:00:17;;;;;;;;;5.25;5.00;;;;;4.37;77.33;102728.72;5063216;28;46065;-64
2022/01/21 00:02:44;;;;;;;;;9.00;7.25;;;;;4.31;77.61;102731.19;5063704;28;45451;-64
2022/01/21 00:05:09;;;;;;;;;7.75;6.00;;;;;4.26;76.86;102729.34;5063256;28;45217;-61
2022/01/21 00:07:35;;;;;;;;;11.25;8.50;;;;;4.18;77.55;102732.66;5061791;28;45228;-62
2022/01/21 00:10:00;;;;;;;;;10.50;6.25;;;;;4.05;77.39;102715.00;5063659;28;46302;-64
2022/01/21 00:12:29;;;;;;;;;9.00;6.00;;;;;4.03;77.90;102737.53;5062632;28;45318;-64
2022/01/21 00:14:54;;;;;;;;;8.75;7.75;;;;;3.99;78.21;102728.78;5060861;28;45339;-67
2022/01/21 00:17:22;;;;;;;;;10.00;8.00;;;;;3.97;78.16;102722.66;5059803;28;45452;-64
2022/01/21 00:19:51;;;;;;;;;6.75;6.00;;;;;3.71;78.71;102677.81;5059541;28;46116;-61
2022/01/21 00:30:44;;;;;;;;;6.75;4.50;;;;;4.03;78.55;102712.38;5061478;28;45797;-64
2022/01/21 00:33:10;;;;;;;;;11.25;7.25;;;;;3.99;79.05;102714.88;5060439;28;45415;-60
2022/01/21 00:35:35;;;;;;;;;10.75;7.75;;;;;3.87;78.68;102700.75;5040871;28;45433;-64
2022/01/21 00:38:00;;;;;;;;;12.25;9.00;;;;;3.87;79.23;102700.75;5058627;28;45402;-63
2022/01/21 00:40:26;;;;;;;;;10.75;7.75;;;;;3.86;78.95;102701.59;5041489;28;47922;-61
2022/01/21 00:43:13;;;;;;;;;14.00;10.00;;;;;3.92;79.25;102712.13;5059795;28;45367;-62
2022/01/21 00:45:38;;;;;;;;;16.25;9.75;;;;;3.93;79.28;102700.88;5061022;28;45357;-63
2022/01/21 00:48:04;;;;;;;;;12.25;10.00;;;;;3.94;79.43;102706.97;5043405;28;45260;-63
2022/01/21 00:50:30;;;;;;;;;17.00;8.75;;;;;3.90;79.43;102695.59;5060554;28;45219;-62
2022/01/21 00:52:56;;;;;;;;;13.00;7.75;;;;;3.89;79.14;102701.66;5062955;28;45287;-63
2022/01/21 00:55:21;;;;;;;;;10.00;10.00;;;;;3.92;79.50;102704.31;5044697;28;45249;-63
2022/01/21 00:57:46;;;;;;;;;11.25;9.50;;;;;3.89;79.32;102701.66;5067881;28;45174;-62
2022/01/21 01:00:12;;;;;;;;;9.50;7.25;;;;;3.93;79.39;102710.44;5065760;28;45229;-62
2022/01/21 01:02:39;;;;;;;;;11.50;8.00;;;;;3.93;79.12;102706.09;5060250;28;45355;-62
2022/01/21 01:05:06;;;;;;;;;11.00;9.00;;;;;3.95;79.65;102712.22;5058051;28;45353;-63
2022/01/21 01:07:32;;;;;;;;;12.75;9.00;;;;;3.91;79.64;102701.72;5057981;28;45500;-62
2022/01/21 01:09:58;;;;;;;;;10.00;6.00;;;;;3.94;79.67;102713.06;5057833;28;45466;-64
2022/01/21 01:20:23;;;;;;;;;12.25;9.50;;;;;3.89;79.28;102700.78;5057954;28;45322;-61
2022/01/21 01:27:58;;;;;;;;;11.50;8.25;;;;;3.75;80.18;102692.66;5057873;28;45226;-63
2022/01/21 01:30:26;;;;;;;;;10.25;6.75;;;;;3.69;79.58;102698.59;5057201;28;46368;-62
2022/01/21 01:32:55;;;;;;;;;12.00;9.25;;;;;3.64;80.47;102692.41;5039658;28;45536;-62
2022/01/21 01:35:21;;;;;;;;;5.75;5.75;;;;;3.60;80.01;102703.59;5057777;28;45320;-62
2022/01/21 01:40:30;;;;;;;;;8.00;6.75;;;;;3.49;80.96;102705.97;5040961;28;45374;-62
2022/01/21 01:50:51;;;;;;;;;12.25;8.50;;;;;3.33;81.23;102716.00;5057419;28;45806;-60
2022/01/21 01:53:19;;;;;;;;;8.50;8.25;;;;;3.27;81.79;102705.47;5039128;28;45877;-63
2022/01/21 01:55:45;;;;;;;;;15.00;9.00;;;;;3.22;81.48;102712.25;5038980;28;45339;-62
2022/01/21 01:58:14;;;;;;;;;11.25;9.00;;;;;3.16;81.69;102712.09;5058066;28;45307;-62
2022/01/21 02:00:40;;;;;;;;;10.50;5.25;;;;;3.15;81.44;102719.03;5057089;28;47243;-62
2022/01/21 02:03:07;;;;;;;;;10.75;6.50;;;;;3.10;81.72;102705.03;5057381;28;45233;-63
2022/01/21 02:05:32;;;;;;;;;10.25;6.75;;;;;3.04;81.68;102705.72;5058202;28;45281;-63
2022/01/21 02:07:58;;;;;;;;;15.00;10.00;;;;;3.06;82.92;102709.25;5057677;28;45460;-63
2022/01/21 02:10:23;;;;;;;;;10.00;5.00;;;;;3.00;82.23;102716.91;5057436;28;45489;-60
2022/01/21 02:12:49;;;;;;;;;11.00;8.00;;;;;2.96;82.92;102702.06;5058549;28;45367;-62
2022/01/21 02:15:15;;;;;;;;;11.50;9.00;;;;;2.99;82.20;102717.75;5058351;28;45319;-62
2022/01/21 02:23:12;;;;;;;;;16.25;5.00;;;;;2.88;83.73;102717.47;4996267;28;45461;-63
2022/01/21 02:25:37;;;;;;;;;12.50;7.25;;;;;2.84;83.33;102704.34;4995922;28;45328;-66
2022/01/21 02:28:02;;;;;;;;;10.00;8.00;;;;;2.85;83.99;102721.69;5024017;28;45538;-63
2022/01/21 02:30:28;;;;;;;;;11.25;7.00;;;;;2.82;83.47;102716.41;5058515;28;46296;-61
2022/01/21 02:32:55;;;;;;;;;10.50;8.00;;;;;2.78;83.62;102715.47;5057111;28;45419;-61
2022/01/21 02:35:22;;;;;;;;;10.00;6.25;;;;;2.76;83.46;102714.56;5056856;28;45285;-62
2022/01/21 02:37:48;;;;;;;;;11.25;8.25;;;;;2.74;83.71;102711.91;5056737;28;45516;-62
2022/01/21 02:40:16;;;;;;;;;11.00;7.50;;;;;2.68;84.32;102710.88;5056149;28;46320;-62
2022/01/21 02:42:42;;;;;;;;;11.00;8.00;;;;;2.67;84.22;102714.31;5056543;28;45379;-63
2022/01/21 02:45:10;;;;;;;;;14.25;9.00;;;;;2.67;83.41;102712.56;5038533;28;45399;-63
2022/01/21 02:47:35;;;;;;;;;10.25;6.00;;;;;2.65;84.77;102724.66;5056736;28;45325;-63
2022/01/21 02:50:01;;;;;;;;;9.25;8.50;;;;;2.62;84.76;102720.22;5056789;28;46916;-63
2022/01/21 02:52:29;;;;;;;;;7.00;7.00;;;;;2.59;83.91;102714.09;5057638;28;45278;-62
2022/01/21 02:54:54;;;;;;;;;8.75;5.00;;;;;2.54;85.07;102711.34;5061452;28;45269;-60
2022/01/21 02:57:20;;;;;;;;;8.75;7.00;;;;;2.55;84.14;102720.03;5057063;28;45528;-62
2022/01/21 02:59:45;;;;;;;;;7.50;4.00;;;;;2.53;85.07;102717.38;5057589;28;45408;-61
2022/01/21 03:02:11;;;;;;;;;8.50;6.00;;;;;2.51;84.97;102716.47;5055985;28;45426;-63
2022/01/21 03:07:02;;;;;;;;;8.25;8.00;;;;;2.48;85.22;102719.88;5056412;28;45321;-62
2022/01/21 03:09:28;;;;;;;;;9.75;5.25;;;;;2.46;84.72;102713.75;5056296;28;45400;-62
2022/01/21 03:11:53;;;;;;;;;10.00;8.75;;;;;2.45;85.45;102718.88;5056296;28;45255;-63
2022/01/21 03:14:19;;;;;;;;;9.50;6.50;;;;;2.45;84.87;102718.88;5056369;28;45297;-62
2022/01/21 03:16:44;;;;;;;;;8.00;7.25;;;;;2.44;84.66;102718.03;5058128;28;45465;-63
2022/01/21 03:19:09;;;;;;;;;10.75;9.25;;;;;2.41;85.16;102712.75;5057211;28;45919;-63
2022/01/21 03:21:36;;;;;;;;;7.75;7.50;;;;;2.34;85.58;102705.63;5057552;28;45236;-63
2022/01/21 03:24:02;;;;;;;;;13.75;9.25;;;;;2.38;85.14;102717.84;5066979;28;45301;-62
2022/01/21 03:26:27;;;;;;;;;14.75;8.75;;;;;2.36;85.20;102721.22;5059603;28;45364;-62
2022/01/21 03:28:56;;;;;;;;;13.50;9.75;;;;;2.34;85.51;102729.84;5038355;28;47603;-64
2022/01/21 03:31:22;;;;;;;;;11.50;9.25;;;;;2.34;85.82;102734.19;5056307;28;45399;-63
2022/01/21 03:33:47;;;;;;;;;12.25;7.25;;;;;2.33;85.67;102735.88;5056027;28;45305;-62
2022/01/21 03:36:13;;;;;;;;;8.00;8.00;;;;;2.32;85.61;102728.06;5056580;28;45426;-63
2022/01/21 03:38:39;;;;;;;;;10.00;7.00;;;;;2.30;86.37;102730.59;5057206;28;45158;-63
2022/01/21 03:41:06;;;;;;;;;9.00;8.00;;;;;2.28;85.46;102731.41;5056411;28;45319;-63
2022/01/21 03:43:32;;;;;;;;;12.50;9.00;;;;;2.27;85.45;102732.25;5056799;28;45319;-65
2022/01/21 03:45:58;;;;;;;;;10.50;7.00;;;;;2.30;85.64;102732.34;5056614;28;45228;-62
2022/01/21 03:48:25;;;;;;;;;10.75;9.00;;;;;2.31;86.16;102737.56;5055538;28;46071;-61
2022/01/21 03:50:51;;;;;;;;;13.00;8.00;;;;;2.38;86.85;102741.22;5055431;28;45420;-62
2022/01/21 03:53:16;;;;;;;;;8.25;7.25;;;;;2.45;86.03;102742.28;5055879;28;45452;-63
2022/01/21 03:55:43;;;;;;;;;14.00;9.00;;;;;2.53;85.73;102737.31;5038344;28;45497;-63
2022/01/21 03:58:10;;;;;;;;;10.00;7.00;;;;;2.61;85.94;102733.19;5056165;28;45374;-64
2022/01/21 04:00:43;;;;;;;;;10.50;8.75;;;;;2.67;85.60;102735.97;5055947;28;45273;-61
2022/01/21 04:03:08;;;;;;;;;13.50;13.50;;;;;2.72;85.39;102739.56;5056098;28;45319;-63
2022/01/21 04:05:34;;;;;;;;;9.00;8.00;;;;;2.75;84.69;102739.66;5041899;28;45620;-62
2022/01/21 04:08:02;;;;;;;;;13.75;8.25;;;;;2.75;84.82;102731.00;5037116;28;47245;-61
2022/01/21 04:10:28;;;;;;;;;12.00;7.50;;;;;2.73;85.11;102735.25;5055520;28;45364;-63
2022/01/21 04:12:53;;;;;;;;;8.25;7.50;;;;;2.70;85.04;102738.66;5055389;28;45417;-61
2022/01/21 04:15:19;;;;;;;;;10.25;5.50;;;;;2.71;85.40;102742.13;5037251;28;45582;-63
2022/01/21 04:17:44;;;;;;;;;11.25;8.25;;;;;2.73;84.69;102736.13;5054962;28;45349;-62
2022/01/21 04:20:13;;;;;;;;;11.00;8.00;;;;;2.73;84.96;102743.06;5055116;28;45361;-64
2022/01/21 04:22:39;;;;;;;;;15.50;8.50;;;;;2.75;85.09;102742.25;5055574;28;45328;-62
2022/01/21 04:25:05;;;;;;;;;9.00;7.00;;;;;2.76;85.31;102750.94;5055063;28;45553;-62
2022/01/21 04:27:31;;;;;;;;;5.00;5.00;;;;;2.75;84.82;102747.44;5054924;28;46349;-61
2022/01/21 04:29:56;;;;;;;;;10.50;5.00;;;;;2.73;84.45;102743.06;5055295;28;45311;-63
2022/01/21 04:32:22;;;;;;;;;9.75;7.00;;;;;2.78;84.74;102750.13;5054777;28;45542;-63
2022/01/21 04:34:47;;;;;;;;;7.75;4.75;;;;;2.80;84.56;102745.00;5057415;28;45229;-63
2022/01/21 04:37:14;;;;;;;;;10.00;5.75;;;;;2.83;84.52;102746.78;5057663;28;46364;-62
2022/01/21 04:39:47;;;;;;;;;12.50;8.00;;;;;2.84;84.56;102746.84;5057992;28;45432;-63
2022/01/21 04:47:29;;;;;;;;;9.50;6.25;;;;;2.97;83.93;102750.63;5062171;28;45387;-63
2022/01/21 04:49:55;;;;;;;;;6.00;6.00;;;;;2.89;84.07;102737.44;5062461;28;45249;-63
2022/01/21 04:52:22;;;;;;;;;9.00;8.00;;;;;2.94;84.11;102737.53;5060320;28;45371;-64
2022/01/21 04:54:49;;;;;;;;;8.75;6.75;;;;;2.94;83.98;102745.34;5058570;28;45175;-63
2022/01/21 04:57:14;;;;;;;;;8.25;8.00;;;;;2.89;84.00;102740.03;5058890;28;46204;-62
2022/01/21 04:59:41;;;;;;;;;12.75;8.00;;;;;2.93;83.63;102751.38;5057956;28;45300;-63
2022/01/21 05:02:07;;;;;;;;;13.25;9.00;;;;;2.93;84.81;102748.78;5057811;28;45424;-63
2022/01/21 05:04:33;;;;;;;;;11.50;7.25;;;;;2.98;84.32;102747.19;5057828;28;45340;-62
2022/01/21 05:06:59;;;;;;;;;11.00;8.50;;;;;3.00;83.81;102750.69;5057929;28;45382;-62
2022/01/21 05:09:31;;;;;;;;;12.00;7.75;;;;;3.01;84.34;102749.00;5039879;28;45252;-65
2022/01/21 05:11:57;;;;;;;;;9.25;6.00;;;;;3.00;83.35;102744.63;5059154;28;45419;-64
2022/01/21 05:14:28;;;;;;;;;9.50;7.00;;;;;2.96;83.85;102746.25;5059383;28;45328;-62
2022/01/21 05:17:01;;;;;;;;;10.75;6.50;;;;;3.03;83.50;102755.13;5060333;28;46192;-62
2022/01/21 05:19:27;;;;;;;;;7.00;6.25;;;;;3.03;84.28;102752.50;5057862;28;45338;-62
2022/01/21 05:21:52;;;;;;;;;16.00;6.25;;;;;3.04;83.94;102751.69;5057446;28;45206;-60
2022/01/21 05:24:22;;;;;;;;;10.75;9.25;;;;;3.05;83.22;102758.63;5057814;28;45185;-62
2022/01/21 05:26:54;;;;;;;;;7.50;5.25;;;;;3.04;83.42;102751.69;5023172;28;47126;-61
2022/01/21 05:29:25;;;;;;;;;9.00;7.75;;;;;2.92;84.11;102742.72;5057743;28;45465;-64
2022/01/21 05:31:51;;;;;;;;;8.25;7.50;;;;;3.00;83.16;102755.91;5058684;28;45236;-62
2022/01/21 05:34:17;;;;;;;;;7.50;7.50;;;;;3.01;83.47;102752.47;5061349;28;45300;-63
2022/01/21 05:36:42;;;;;;;;;12.25;6.75;;;;;3.06;83.54;102760.41;5059014;28;45246;-62
2022/01/21 05:39:09;;;;;;;;;11.25;7.75;;;;;3.01;84.11;102764.59;5061879;28;45256;-63
2022/01/21 05:41:35;;;;;;;;;11.50;7.50;;;;;2.99;83.65;102780.13;5060010;28;45415;-62
2022/01/21 05:44:05;;;;;;;;;12.00;7.00;;;;;2.91;83.91;102759.16;5043545;28;45269;-62
2022/01/21 05:49:14;;;;;;;;;7.00;5.75;;;;;2.99;84.25;102767.13;5071398;28;45348;-62
2022/01/21 05:51:40;;;;;;;;;12.75;8.75;;;;;2.96;83.16;102771.41;5060726;28;45308;-61
2022/01/21 05:54:07;;;;;;;;;8.75;8.75;;;;;2.86;84.17;102767.66;5058141;28;45233;-62
2022/01/21 05:56:32;;;;;;;;;6.50;4.50;;;;;2.82;83.36;102778.81;5057626;28;46390;-62
2022/01/21 05:59:00;;;;;;;;;11.75;8.50;;;;;2.76;83.77;102771.72;5057088;28;45330;-61
2022/01/21 06:01:25;;;;;;;;;5.50;5.50;;;;;2.81;83.97;102777.03;5057253;28;45359;-64
2022/01/21 06:03:51;;;;;;;;;8.50;8.00;;;;;2.83;84.13;102776.25;5057323;28;45331;-62
2022/01/21 06:06:16;;;;;;;;;9.00;5.00;;;;;2.87;85.04;102779.81;5056872;28;45295;-63
2022/01/21 06:08:42;;;;;;;;;9.75;5.00;;;;;2.90;84.59;102779.91;5056700;28;45281;-61
2022/01/21 06:11:07;;;;;;;;;11.00;9.00;;;;;2.95;84.26;102782.63;5038716;28;45358;-63
2022/01/21 06:13:34;;;;;;;;;5.75;5.00;;;;;3.02;83.77;102794.97;5057348;28;45533;-61
2022/01/21 06:15:59;;;;;;;;;10.75;7.00;;;;;3.05;83.56;102789.84;5057042;28;46160;-62
2022/01/21 06:18:26;;;;;;;;;8.00;8.00;;;;;3.09;83.90;102786.47;5057416;28;45247;-63
2022/01/21 06:20:52;;;;;;;;;10.00;5.50;;;;;3.10;83.48;102788.25;5056586;28;45384;-62
2022/01/21 06:23:17;;;;;;;;;8.25;6.50;;;;;3.18;83.19;102793.63;5056860;28;45423;-62
2022/01/21 06:25:43;;;;;;;;;5.75;5.00;;;;;3.17;83.35;102792.75;5057973;28;45926;-62
2022/01/21 06:28:08;;;;;;;;;7.00;6.25;;;;;3.16;83.00;102795.31;5056796;28;45289;-60
2022/01/21 06:30:33;;;;;;;;;11.25;6.25;;;;;3.15;83.94;102790.94;5039137;28;45463;-63
2022/01/21 06:32:59;;;;;;;;;9.00;8.00;;;;;3.17;83.68;102781.47;5056894;28;45351;-61
2022/01/21 06:35:24;;;;;;;;;9.50;9.00;;;;;3.21;83.66;102781.59;5056699;28;45325;-63
2022/01/21 06:37:50;;;;;;;;;6.25;6.00;;;;;3.20;84.04;102786.78;5057313;28;45360;-63
2022/01/21 06:40:19;;;;;;;;;8.50;6.50;;;;;3.22;83.57;102785.09;5039205;28;45367;-64
2022/01/21 06:42:45;;;;;;;;;11.75;7.00;;;;;3.20;83.95;102786.78;5057967;28;45578;-66
2022/01/21 06:45:10;;;;;;;;;7.75;7.75;;;;;3.14;83.73;102790.09;5058661;28;46016;-65
2022/01/21 06:47:36;;;;;;;;;11.50;8.00;;;;;3.14;83.74;102794.38;5059579;28;45254;-63
2022/01/21 06:50:01;;;;;;;;;13.75;8.00;;;;;3.15;83.52;102797.03;5059522;28;45217;-64
2022/01/21 06:52:29;;;;;;;;;8.00;6.50;;;;;3.19;83.09;102792.81;5058174;28;45590;-62
2022/01/21 06:54:54;;;;;;;;;11.25;8.00;;;;;3.16;83.10;102797.91;5056140;28;46097;-63
2022/01/21 06:57:20;;;;;;;;;12.75;9.00;;;;;3.13;83.17;102805.63;5059198;28;45402;-63
2022/01/21 06:59:47;;;;;;;;;10.00;6.75;;;;;3.14;83.78;102810.88;5061805;28;45422;-67
2022/01/21 07:02:12;;;;;;;;;8.00;7.50;;;;;3.10;83.41;102805.53;5057968;28;45331;-67
2022/01/21 07:04:38;;;;;;;;;12.50;7.00;;;;;3.14;82.84;102815.19;5057254;28;46018;-67
2022/01/21 07:07:04;;;;;;;;;12.50;9.00;;;;;3.18;83.32;102823.13;5039414;28;45367;-62
2022/01/21 07:09:30;;;;;;;;;8.50;7.25;;;;;3.22;83.56;102819.78;5056363;28;45217;-64
2022/01/21 07:11:55;;;;;;;;;5.75;3.75;;;;;3.22;83.37;102818.91;5042491;28;45584;-64
2022/01/21 07:14:22;;;;;;;;;23.50;16.25;;;;;3.25;83.14;102825.91;5037909;28;47117;-64
2022/01/21 07:16:48;;;;;;;;;12.75;7.75;;;;;3.28;83.82;102825.97;5056015;28;45264;-62
2022/01/21 07:19:14;;;;;;;;;8.75;6.25;;;;;3.30;83.54;102826.91;5055940;28;45565;-68
2022/01/21 07:21:40;;;;;;;;;9.75;9.00;;;;;3.32;83.00;102831.31;5055321;28;45328;-68
2022/01/21 07:24:06;;;;;;;;;5.25;5.00;;;;;3.35;82.60;102830.50;5051026;28;46215;-63
2022/01/21 07:26:32;;;;;;;;;13.50;9.75;;;;;3.39;83.57;102836.69;5056172;28;45437;-63
2022/01/21 07:28:57;;;;;;;;;16.00;10.50;;;;;3.44;83.30;102841.16;5054062;28;45520;-62
2022/01/21 07:31:23;;;;;;;;;16.25;9.00;;;;;3.50;83.44;102838.69;5053778;28;45708;-62
2022/01/21 07:33:48;;;;;;;;;9.75;9.50;;;;;3.54;83.21;102844.88;5055562;28;46066;-66
2022/01/21 07:36:14;;;;;;;;;12.00;6.75;;;;;3.56;82.67;102844.91;5055996;28;45318;-62
2022/01/21 07:38:41;;;;;;;;;10.25;8.00;;;;;3.59;82.99;102848.47;5057998;28;45165;-61
2022/01/21 07:41:06;;;;;;;;;14.00;11.75;;;;;3.59;82.78;102838.06;5056190;28;45445;-63
2022/01/21 07:43:32;;;;;;;;;11.50;10.00;;;;;3.69;82.32;102856.50;5056020;28;45328;-62
2022/01/21 07:45:57;;;;;;;;;12.50;8.75;;;;;3.65;82.29;102850.34;5055887;28;45379;-62
2022/01/21 07:48:22;;;;;;;;;12.25;9.50;;;;;3.71;81.96;102849.63;5055866;28;45552;-61
2022/01/21 07:50:48;;;;;;;;;10.00;10.00;;;;;3.70;82.20;102842.66;5056179;28;45228;-63
2022/01/21 07:53:13;;;;;;;;;11.75;9.75;;;;;3.75;81.61;102860.16;5055452;28;45315;-60
2022/01/21 07:55:38;;;;;;;;;11.00;9.25;;;;;3.76;82.37;102851.50;5055728;28;45520;-64
2022/01/21 07:58:04;;;;;;;;;15.00;12.25;;;;;3.76;81.17;102861.03;5057000;28;45369;-60
2022/01/21 08:00:30;;;;;;;;;13.25;10.00;;;;;3.80;81.90;102865.47;5057309;28;45385;-63
2022/01/21 08:02:56;;;;;;;;;10.00;10.00;;;;;3.82;81.95;102878.53;5055548;28;45415;-61
2022/01/21 08:05:22;;;;;;;;;10.25;10.00;;;;;3.82;81.76;102861.19;5054182;28;45394;-62
2022/01/21 08:07:47;;;;;;;;;9.50;9.00;;;;;3.74;82.48;102848.00;5056934;28;45538;-62
2022/01/21 08:10:13;;;;;;;;;16.00;11.50;;;;;3.88;81.80;102868.28;5061768;28;45462;-63
2022/01/21 08:12:38;;;;;;;;;31.50;25.25;;;;;3.93;81.54;102875.34;5060521;28;45392;-64
2022/01/21 08:15:04;;;;;;;;;17.00;10.00;;;;;3.98;81.82;102875.47;5058416;28;45313;-64
2022/01/21 08:17:29;;;;;;;;;12.00;10.00;;;;;3.96;81.58;102874.56;5060454;28;45427;-65
2022/01/21 08:19:59;;;;;;;;;11.25;10.00;;;;;4.02;81.28;102876.41;5061300;28;45524;-63
2022/01/21 08:22:25;;;;;;;;;10.75;9.75;;;;;4.02;81.49;102876.41;5060140;28;45269;-62
2022/01/21 08:24:50;;;;;;;;;12.25;9.00;;;;;4.06;81.00;102876.53;5058443;28;45342;-64
2022/01/21 08:27:17;;;;;;;;;14.00;12.25;;;;;4.09;81.42;102871.41;5057074;28;45475;-63
2022/01/21 08:29:42;;;;;;;;;12.25;11.50;;;;;4.23;81.66;102879.53;5059051;28;45320;-61
2022/01/21 08:32:08;;;;;;;;;16.50;11.00;;;;;4.33;81.39;102883.22;5058848;28;46041;-64
2022/01/21 08:34:34;;;;;;;;;18.75;11.00;;;;;4.38;80.59;102880.75;5058409;28;45337;-63
2022/01/21 08:37:04;;;;;;;;;12.25;9.25;;;;;4.40;80.10;102873.84;5058942;28;45285;-64
2022/01/21 08:39:30;;;;;;;;;16.50;10.50;;;;;4.45;79.78;102881.75;5061676;28;45377;-63
2022/01/21 08:41:55;;;;;;;;;19.75;15.00;;;;;4.46;80.13;102884.41;5058019;28;45291;-65
2022/01/21 08:44:21;;;;;;;;;14.00;11.00;;;;;4.52;80.28;102879.31;5058120;28;47220;-63
2022/01/21 08:46:46;;;;;;;;;15.50;10.25;;;;;4.51;79.51;102882.78;5060050;28;45315;-65
2022/01/21 08:49:11;;;;;;;;;10.75;10.25;;;;;4.54;79.92;102881.94;5058773;28;45357;-65
2022/01/21 08:51:50;;;;;;;;;21.00;13.25;;;;;4.55;79.85;102881.09;5059165;28;45339;-64
2022/01/21 08:54:16;;;;;;;;;10.50;7.00;;;;;4.59;80.27;102888.16;5063016;28;45233;-63
2022/01/21 08:56:43;;;;;;;;;14.25;11.50;;;;;4.61;80.01;102893.41;5065421;28;45137;-64
2022/01/21 08:59:09;;;;;;;;;13.75;10.50;;;;;4.67;79.61;102883.97;5059189;28;45309;-62
2022/01/21 09:01:34;;;;;;;;;12.00;9.75;;;;;4.73;79.33;102877.13;5058018;28;46119;-63
2022/01/21 09:04:00;;;;;;;;;14.75;13.00;;;;;4.82;79.60;102879.97;5059270;28;45339;-63
2022/01/21 09:06:28;;;;;;;;;13.50;11.25;;;;;4.87;78.77;102877.44;5058579;28;45271;-64
2022/01/21 09:08:55;;;;;;;;;51.00;39.75;;;;;4.95;79.08;102888.91;5059336;28;45393;-64
2022/01/21 09:11:20;;;;;;;;;12.25;11.50;;;;;5.00;78.64;102884.66;5057971;28;45305;-64
2022/01/21 09:13:46;;;;;;;;;16.50;12.25;;;;;5.06;78.01;102891.75;5062874;28;45235;-63
2022/01/21 09:16:11;;;;;;;;;23.25;15.25;;;;;5.09;78.11;102895.28;5059367;28;45449;-63
2022/01/21 09:18:58;;;;;;;;;14.75;13.25;;;;;5.15;77.72;102898.84;5058515;28;45179;-65
2022/01/21 09:21:26;;;;;;;;;15.50;13.00;;;;;5.19;78.04;102903.28;5059144;28;46355;-65
2022/01/21 09:23:53;;;;;;;;;11.00;10.50;;;;;5.23;76.89;102897.28;5058134;28;45326;-62
2022/01/21 09:26:22;;;;;;;;;14.75;10.50;;;;;5.24;77.34;102892.09;5058339;28;45382;-65
2022/01/21 09:28:47;;;;;;;;;15.00;11.25;;;;;5.25;77.26;102899.06;5056354;28;45601;-64
2022/01/21 09:31:14;;;;;;;;;19.50;14.50;;;;;5.28;77.31;102911.28;5058388;28;46591;-64
2022/01/21 09:33:40;;;;;;;;;8.00;7.00;;;;;5.22;76.47;102914.69;5061442;28;45406;-61
2022/01/21 09:36:07;;;;;;;;;18.25;14.50;;;;;5.20;77.32;102920.69;5057681;28;45350;-63
2022/01/21 09:38:33;;;;;;;;;20.75;16.00;;;;;5.22;78.02;102913.78;5058479;28;45434;-64
2022/01/21 09:40:58;;;;;;;;;19.00;14.25;;;;;5.28;77.17;102919.13;5060069;28;46169;-62
2022/01/21 09:43:24;;;;;;;;;19.00;13.75;;;;;5.31;76.67;102931.38;5060020;28;45311;-63
2022/01/21 09:45:53;;;;;;;;;14.00;13.25;;;;;5.31;77.04;102931.38;5059275;28;45353;-63
2022/01/21 09:48:29;;;;;;;;;14.50;12.50;;;;;5.33;76.05;102942.72;5063189;28;45525;-64
2022/01/21 09:50:58;;;;;;;;;14.50;11.50;;;;;5.35;77.14;102943.63;5063810;28;46281;-63
2022/01/21 09:53:30;;;;;;;;;19.25;15.00;;;;;5.34;77.18;102942.75;5058691;28;45295;-63
2022/01/21 09:56:05;;;;;;;;;16.00;12.50;;;;;5.42;75.83;102945.50;5060550;28;45401;-65
2022/01/21 09:58:32;;;;;;;;;16.75;14.00;;;;;5.38;76.36;102944.56;5060341;28;45368;-64
2022/01/21 10:01:01;;;;;;;;;19.50;14.25;;;;;5.39;76.00;102940.22;5062172;28;45363;-63
2022/01/21 10:03:27;;;;;;;;;17.50;16.50;;;;;5.47;76.35;102941.25;5060441;28;45255;-62
2022/01/21 10:05:54;;;;;;;;;23.50;16.00;;;;;5.50;76.38;102946.53;5059388;28;45416;-64
2022/01/21 10:08:23;;;;;;;;;12.25;11.75;;;;;5.53;75.80;102943.09;5059721;28;45339;-64
2022/01/21 10:10:50;;;;;;;;;17.75;15.75;;;;;5.62;76.27;102937.16;5057740;28;46232;-60
2022/01/21 10:13:18;;;;;;;;;19.25;15.50;;;;;5.69;75.49;102950.38;5059053;28;45228;-64
2022/01/21 10:15:43;;;;;;;;;23.00;19.75;;;;;5.80;75.87;102947.06;5057919;28;45173;-63
2022/01/21 10:18:13;;;;;;;;;15.25;13.25;;;;;5.85;74.92;102932.38;5058524;28;45225;-63
2022/01/21 10:21:01;;;;;;;;;30.00;20.75;;;;;6.09;76.17;102958.06;5058673;28;45422;-65
2022/01/21 10:23:30;;;;;;;;;17.75;16.00;;;;;6.19;74.68;102953.84;5057406;28;45257;-63
2022/01/21 10:26:19;;;;;;;;;18.25;14.00;;;;;6.22;74.08;102951.28;5057095;28;45320;-64
2022/01/21 10:28:54;;;;;;;;;20.25;18.00;;;;;6.32;74.51;102948.81;5042245;28;45230;-63
2022/01/21 10:31:20;;;;;;;;;19.50;13.00;;;;;6.38;73.58;102955.03;5056581;28;46413;-64
2022/01/21 10:33:51;;;;;;;;;20.25;15.00;;;;;6.35;73.58;102948.88;5057050;28;45310;-65
2022/01/21 10:36:26;;;;;;;;;20.75;17.00;;;;;6.34;74.21;102942.78;5058139;28;45260;-62
2022/01/21 10:39:05;;;;;;;;;18.25;14.50;;;;;6.34;74.15;102952.34;5057388;28;45318;-65
2022/01/21 10:41:33;;;;;;;;;22.75;18.00;;;;;6.29;73.34;102954.91;5056773;28;46013;-61
2022/01/21 10:44:06;;;;;;;;;15.25;14.50;;;;;6.22;73.59;102953.91;5056054;28;45430;-64
2022/01/21 10:46:32;;;;;;;;;17.25;14.50;;;;;6.18;73.37;102948.63;5056519;28;45289;-62
2022/01/21 10:49:01;;;;;;;;;19.50;16.50;;;;;6.12;73.06;102959.84;5056527;28;45236;-65
2022/01/21 10:51:33;;;;;;;;;20.25;19.00;;;;;6.07;74.14;102953.66;5056248;28;46205;-62
2022/01/21 10:54:12;;;;;;;;;18.75;14.25;;;;;6.08;74.99;102956.31;5056605;28;45804;-64
2022/01/21 10:56:38;;;;;;;;;24.00;16.00;;;;;6.07;73.95;102944.09;5057155;28;45419;-64
2022/01/21 10:59:03;;;;;;;;;21.75;16.25;;;;;6.08;73.70;102942.34;5057086;28;45523;-64
2022/01/21 11:01:30;;;;;;;;;20.50;16.25;;;;;6.07;73.44;102945.81;5055970;28;45516;-62
2022/01/21 11:03:57;;;;;;;;;18.00;12.50;;;;;6.12;73.83;102938.94;5055724;28;45316;-63
2022/01/21 11:06:25;;;;;;;;;24.25;20.25;;;;;6.19;74.73;102938.19;5057109;28;45393;-64
2022/01/21 11:09:16;;;;;;;;;23.50;16.50;;;;;6.37;73.88;102935.00;5055553;28;45367;-65
2022/01/21 11:11:44;;;;;;;;;14.25;12.50;;;;;6.34;72.93;102913.13;5054168;28;45444;-63
2022/01/21 11:14:13;;;;;;;;;20.75;16.00;;;;;6.49;72.70;102931.69;5055069;28;45489;-65
2022/01/21 11:16:41;;;;;;;;;21.00;18.25;;;;;6.46;73.14;102936.88;5055135;28;45517;-62
2022/01/21 11:19:13;;;;;;;;;18.25;12.75;;;;;6.50;72.94;102932.56;5054554;28;45272;-64
2022/01/21 11:21:44;;;;;;;;;13.00;12.25;;;;;6.56;72.80;102943.09;5054192;28;45338;-62
2022/01/21 11:24:11;;;;;;;;;15.25;11.50;;;;;6.55;72.83;102937.00;5054002;28;45318;-67
2022/01/21 11:26:37;;;;;;;;;20.25;16.00;;;;;6.55;72.55;102941.34;5053942;28;45271;-65
2022/01/21 11:29:04;;;;;;;;;25.25;21.75;;;;;6.64;72.56;102941.47;5054344;28;45553;-62
2022/01/21 11:31:31;;;;;;;;;23.25;17.75;;;;;6.70;72.42;102938.94;5054285;28;45500;-60
2022/01/21 11:33:56;;;;;;;;;18.00;14.00;;;;;6.75;72.01;102935.50;5053829;28;45388;-60
2022/01/21 11:36:22;;;;;;;;;17.00;12.00;;;;;6.76;72.27;102932.03;5053667;28;45404;-64
2022/01/21 11:38:49;;;;;;;;;22.00;18.25;;;;;6.73;72.06;102928.53;5054439;28;45233;-63
2022/01/21 11:41:15;;;;;;;;;24.75;17.75;;;;;6.75;72.63;102930.28;5052672;28;48011;-64
2022/01/21 11:43:50;;;;;;;;;18.75;15.50;;;;;6.73;71.87;102936.38;5054485;28;45496;-64
2022/01/21 11:46:24;;;;;;;;;21.75;17.75;;;;;6.77;71.55;102933.78;5054430;28;45327;-65
2022/01/21 11:48:55;;;;;;;;;25.00;18.75;;;;;6.86;72.09;102921.72;5055378;28;45550;-64
2022/01/21 11:51:32;;;;;;;;;26.00;20.25;;;;;6.99;71.82;102924.50;5055157;28;47006;-64
2022/01/21 11:54:04;;;;;;;;;15.25;14.00;;;;;7.02;71.74;102927.16;5013803;28;1225660;-62
2022/01/21 11:56:42;;;;;;;;;19.75;15.75;;;;;6.98;71.87;102927.97;5054621;28;45390;-63
2022/01/21 11:59:19;;;;;;;;;15.00;11.75;;;;;6.89;70.55;102915.63;5056446;28;45605;-63
2022/01/21 12:01:49;;;;;;;;;15.25;14.75;;;;;6.86;70.84;102919.13;5055821;28;46150;-64
2022/01/21 12:04:38;;;;;;;;;19.25;15.25;;;;;6.85;71.05;102917.34;5058746;28;45196;-63
2022/01/21 12:07:24;;;;;;;;;24.25;19.75;;;;;6.92;71.06;102917.44;5054040;28;45475;-63
2022/01/21 12:09:59;;;;;;;;;16.25;16.00;;;;;6.99;71.36;102927.13;5056162;28;45493;-64
2022/01/21 12:12:53;;;;;;;;;17.50;12.75;;;;;7.04;70.10;102927.19;5055669;28;46405;-64